createdAt,value
2022-12-01T00:01:09.167Z,0.99
2022-12-01T00:03:36.107Z,0.92
2022-12-01T00:06:04.849Z,0.95
2022-12-01T00:08:32.008Z,0.91
2022-12-01T00:11:10.047Z,0.97
2022-12-01T00:13:37.067Z,0.98
2022-12-01T00:16:16.866Z,0.92
2022-12-01T00:18:44.068Z,0.94
2022-12-01T00:21:18.008Z,0.95
2022-12-01T00:23:47.435Z,0.98
2022-12-01T00:26:15.172Z,1.00
2022-12-01T00:28:42.030Z,1.00
2022-12-01T00:31:09.848Z,0.99
2022-12-01T00:33:36.795Z,0.92
2022-12-01T00:36:04.187Z,1.01
2022-12-01T00:38:31.306Z,0.94
2022-12-01T00:40:58.227Z,0.92
2022-12-01T00:43:25.207Z,1.00
2022-12-01T00:45:52.200Z,1.04
2022-12-01T00:48:19.106Z,0.99
2022-12-01T00:50:45.977Z,1.03
2022-12-01T00:53:12.836Z,1.02
2022-12-01T00:55:40.474Z,1.03
2022-12-01T00:58:07.775Z,0.93
2022-12-01T01:00:34.807Z,1.00
2022-12-01T01:03:01.848Z,1.02
2022-12-01T01:05:28.747Z,0.98
2022-12-01T01:07:55.629Z,0.96
2022-12-01T01:10:23.007Z,1.05
2022-12-01T01:12:50.407Z,1.06
2022-12-01T01:15:17.368Z,1.02
2022-12-01T01:17:44.229Z,1.05
2022-12-01T01:20:11.572Z,1.05
2022-12-01T01:22:38.443Z,0.99
2022-12-01T01:25:05.668Z,1.04
2022-12-01T01:27:34.087Z,1.04
2022-12-01T01:30:00.907Z,1.05
2022-12-01T01:32:27.806Z,0.98
2022-12-01T01:34:54.668Z,1.10
2022-12-01T01:37:21.515Z,1.04
2022-12-01T01:39:48.771Z,1.10
2022-12-01T01:42:18.148Z,1.05
2022-12-01T01:44:51.746Z,1.12
2022-12-01T01:47:25.410Z,1.14
2022-12-01T01:49:53.015Z,1.11
2022-12-01T01:52:19.886Z,1.14
2022-12-01T01:54:48.109Z,1.13
2022-12-01T01:57:16.267Z,1.13
2022-12-01T01:59:45.681Z,1.12
2022-12-01T02:02:12.763Z,1.16
2022-12-01T02:04:46.325Z,1.16
2022-12-01T02:07:15.166Z,1.16
2022-12-01T02:09:41.988Z,1.14
2022-12-01T02:12:16.727Z,1.15
2022-12-01T02:15:02.269Z,1.18
2022-12-01T02:17:45.373Z,1.18
2022-12-01T02:20:36.886Z,1.19
2022-12-01T02:23:24.627Z,1.19
2022-12-01T02:26:02.067Z,1.19
2022-12-01T02:28:34.508Z,1.19
2022-12-01T02:31:09.250Z,1.11
2022-12-01T02:33:43.869Z,1.18
2022-12-01T02:36:22.322Z,1.17
2022-12-01T02:39:31.846Z,1.17
2022-12-01T02:42:50.288Z,1.15
2022-12-01T02:45:55.804Z,1.17
2022-12-01T02:48:27.246Z,1.09
2022-12-01T02:50:54.506Z,1.14
2022-12-01T02:53:21.448Z,1.08
2022-12-01T02:55:58.649Z,1.09
2022-12-01T02:58:25.568Z,1.11
2022-12-01T03:00:58.007Z,1.14
2022-12-01T03:03:36.567Z,1.14
2022-12-01T03:06:15.307Z,1.06
2022-12-01T03:09:08.926Z,1.12
2022-12-01T03:12:07.666Z,1.13
2022-12-01T03:14:45.605Z,1.14
2022-12-01T03:17:16.367Z,1.14
2022-12-01T03:19:53.787Z,1.09
2022-12-01T03:22:27.307Z,1.11
2022-12-01T03:24:54.926Z,1.13
2022-12-01T03:27:23.266Z,1.14
2022-12-01T03:29:51.382Z,1.09
2022-12-01T03:32:33.687Z,1.14
2022-12-01T03:35:04.606Z,1.13
2022-12-01T03:37:50.107Z,1.14
2022-12-01T03:40:18.527Z,1.14
2022-12-01T03:42:48.348Z,1.14
2022-12-01T03:45:22.347Z,1.14
2022-12-01T03:47:49.167Z,1.08
2022-12-01T03:50:16.607Z,1.13
2022-12-01T03:53:04.806Z,1.15
2022-12-01T03:55:32.332Z,1.17
2022-12-01T03:58:16.646Z,1.17
2022-12-01T04:00:43.947Z,1.18
2022-12-01T04:03:16.951Z,1.18
2022-12-01T04:05:43.868Z,1.14
2022-12-01T04:08:10.839Z,1.19
2022-12-01T04:10:37.760Z,1.17
2022-12-01T04:13:04.688Z,1.18
2022-12-01T04:15:31.527Z,1.14
2022-12-01T04:17:58.386Z,1.18
2022-12-01T04:20:25.246Z,1.13
2022-12-01T04:22:52.090Z,1.17
2022-12-01T04:25:18.946Z,1.17
2022-12-01T04:27:45.846Z,1.11
2022-12-01T04:30:13.368Z,1.12
2022-12-01T04:32:41.043Z,1.16
2022-12-01T04:35:09.187Z,1.13
2022-12-01T04:37:36.210Z,1.16
2022-12-01T04:40:03.408Z,1.16
2022-12-01T04:42:30.387Z,1.16
2022-12-01T04:44:57.268Z,1.17
2022-12-01T04:47:24.211Z,1.16
2022-12-01T04:49:51.344Z,1.19
2022-12-01T04:52:18.446Z,1.18
2022-12-01T04:54:45.267Z,1.15
2022-12-01T04:57:12.188Z,1.18
2022-12-01T04:59:39.028Z,1.16
2022-12-01T05:02:05.958Z,1.15
2022-12-01T05:04:34.286Z,1.13
2022-12-01T05:07:01.226Z,1.16
2022-12-01T05:09:28.108Z,1.12
2022-12-01T05:11:54.937Z,1.16
2022-12-01T05:14:21.787Z,1.17
2022-12-01T05:16:48.701Z,1.09
2022-12-01T05:19:34.330Z,1.14
2022-12-01T05:22:01.269Z,1.15
2022-12-01T05:24:28.207Z,1.18
2022-12-01T05:26:55.028Z,1.18
2022-12-01T05:29:21.908Z,1.18
2022-12-01T05:31:48.811Z,1.20
2022-12-01T05:34:15.846Z,1.18
2022-12-01T05:36:42.719Z,1.14
2022-12-01T05:39:09.548Z,1.16
2022-12-01T05:41:36.446Z,1.21
2022-12-01T05:44:03.401Z,1.19
2022-12-01T05:46:30.267Z,1.19
2022-12-01T05:48:57.181Z,1.21
2022-12-01T05:51:24.047Z,1.17
2022-12-01T05:53:50.966Z,1.17
2022-12-01T05:56:17.848Z,1.21
2022-12-01T05:58:44.787Z,1.19
2022-12-01T06:01:11.647Z,1.20
2022-12-01T06:03:38.569Z,1.18
2022-12-01T06:06:05.648Z,1.14
2022-12-01T06:08:32.529Z,1.19
2022-12-01T06:10:59.387Z,1.14
2022-12-01T06:13:26.349Z,1.16
2022-12-01T06:16:00.248Z,1.16
2022-12-01T06:18:27.788Z,1.15
2022-12-01T06:20:54.607Z,1.14
2022-12-01T06:23:23.453Z,1.14
2022-12-01T06:25:53.248Z,1.13
2022-12-01T06:28:20.188Z,1.12
2022-12-01T06:30:47.028Z,1.10
2022-12-01T06:33:13.887Z,1.11
2022-12-01T06:35:40.731Z,1.08
2022-12-01T06:38:07.609Z,1.13
2022-12-01T06:40:34.507Z,1.12
2022-12-01T06:43:02.808Z,1.13
2022-12-01T06:45:30.351Z,1.14
2022-12-01T06:47:57.567Z,1.07
2022-12-01T06:50:25.072Z,1.15
2022-12-01T06:52:52.919Z,1.17
2022-12-01T06:55:19.886Z,1.19
2022-12-01T06:57:46.993Z,1.18
2022-12-01T07:00:14.908Z,1.17
2022-12-01T07:02:42.119Z,1.18
2022-12-01T07:05:09.285Z,1.21
2022-12-01T07:07:37.564Z,1.17
2022-12-01T07:10:04.808Z,1.21
2022-12-01T07:12:31.968Z,1.18
2022-12-01T07:14:58.878Z,1.18
2022-12-01T07:17:25.867Z,1.24
2022-12-01T07:19:52.729Z,1.16
2022-12-01T07:22:19.608Z,1.19
2022-12-01T07:24:46.528Z,1.24
2022-12-01T07:27:13.469Z,1.21
2022-12-01T07:29:40.406Z,1.21
2022-12-01T07:32:07.306Z,1.25
2022-12-01T07:34:34.147Z,1.25
2022-12-01T07:37:00.990Z,1.19
2022-12-01T07:39:27.976Z,1.27
2022-12-01T07:41:54.812Z,1.22
2022-12-01T07:44:21.714Z,1.28
2022-12-01T07:46:48.528Z,1.29
2022-12-01T07:49:15.806Z,1.22
2022-12-01T07:51:42.648Z,1.30
2022-12-01T07:54:10.188Z,1.25
2022-12-01T07:56:37.690Z,1.32
2022-12-01T07:59:04.733Z,1.33
2022-12-01T08:01:31.754Z,1.36
2022-12-01T08:03:59.088Z,1.38
2022-12-01T08:06:26.328Z,1.41
2022-12-01T08:08:53.211Z,1.38
2022-12-01T08:11:22.388Z,1.48
2022-12-01T08:13:49.507Z,1.27
2022-12-01T08:16:18.767Z,1.53
2022-12-01T08:18:45.987Z,1.53
2022-12-01T08:21:14.612Z,1.57
2022-12-01T08:23:42.327Z,1.59
2022-12-01T08:26:16.848Z,1.60
2022-12-01T08:28:43.724Z,1.59
2022-12-01T08:31:19.065Z,1.65
2022-12-01T08:33:47.022Z,1.64
2022-12-01T08:36:14.125Z,1.71
2022-12-01T08:38:43.660Z,1.73
2022-12-01T08:41:10.589Z,1.72
2022-12-01T08:43:57.185Z,1.69
2022-12-01T08:46:25.526Z,1.73
2022-12-01T08:48:55.007Z,1.70
2022-12-01T08:51:21.878Z,1.79
2022-12-01T08:53:49.320Z,1.70
2022-12-01T08:56:20.300Z,1.79
2022-12-01T08:58:47.138Z,1.81
2022-12-01T09:01:15.605Z,1.81
2022-12-01T09:03:43.273Z,1.80
2022-12-01T09:06:12.387Z,1.78
2022-12-01T09:08:39.439Z,1.85
2022-12-01T09:11:08.362Z,1.86
2022-12-01T09:13:35.421Z,1.87
2022-12-01T09:16:07.266Z,1.90
2022-12-01T09:18:34.300Z,1.91
2022-12-01T09:21:01.367Z,2.01
2022-12-01T09:23:28.287Z,2.02
2022-12-01T09:25:55.187Z,2.21
2022-12-01T09:28:22.107Z,2.31
2022-12-01T09:30:49.014Z,2.38
2022-12-01T09:33:15.965Z,2.39
2022-12-01T09:35:42.829Z,2.53
2022-12-01T09:38:09.747Z,2.71
2022-12-01T09:40:40.848Z,2.83
2022-12-01T09:43:14.926Z,2.97
2022-12-01T09:45:44.428Z,3.08
2022-12-01T09:48:21.346Z,3.20
2022-12-01T09:50:48.232Z,3.31
2022-12-01T09:53:21.848Z,3.38
2022-12-01T09:55:49.205Z,3.43
2022-12-01T09:58:21.927Z,3.48
2022-12-01T10:00:49.630Z,3.50
2022-12-01T10:03:32.968Z,3.56
2022-12-01T10:06:26.739Z,3.65
2022-12-01T10:09:13.346Z,3.76
2022-12-01T10:11:41.772Z,3.75
2022-12-01T10:14:22.267Z,3.78
2022-12-01T10:17:22.507Z,3.78
2022-12-01T10:20:16.269Z,3.80
2022-12-01T10:22:43.068Z,3.85
2022-12-01T10:25:22.091Z,3.87
2022-12-01T10:28:13.473Z,3.90
2022-12-01T10:30:53.174Z,3.89
2022-12-01T10:33:27.466Z,4.01
2022-12-01T10:35:54.367Z,4.08
2022-12-01T10:38:33.107Z,4.12
2022-12-01T10:41:01.133Z,4.18
2022-12-01T10:43:57.771Z,4.31
2022-12-01T10:46:28.086Z,4.29
2022-12-01T10:48:59.408Z,4.34
2022-12-01T10:51:27.347Z,4.30
2022-12-01T10:54:06.707Z,4.36
2022-12-01T10:56:33.648Z,4.35
2022-12-01T10:59:03.728Z,4.25
2022-12-01T11:01:35.955Z,4.35
2022-12-01T11:04:09.208Z,4.32
2022-12-01T11:06:36.528Z,4.30
2022-12-01T11:09:06.222Z,4.28
2022-12-01T11:11:41.994Z,4.14
2022-12-01T11:14:19.627Z,4.19
2022-12-01T11:16:48.149Z,4.13
2022-12-01T11:19:29.000Z,4.12
2022-12-01T11:21:57.939Z,4.14
2022-12-01T11:24:42.313Z,4.13
2022-12-01T11:27:20.375Z,4.15
2022-12-01T11:29:49.576Z,4.18
2022-12-01T11:32:22.803Z,4.12
2022-12-01T11:34:52.513Z,4.22
2022-12-01T11:37:20.891Z,4.26
2022-12-01T11:39:48.595Z,4.22
2022-12-01T11:42:27.189Z,4.24
2022-12-01T11:45:05.331Z,4.25
2022-12-01T11:47:32.153Z,4.16
2022-12-01T11:50:22.729Z,4.20
2022-12-01T11:52:49.499Z,4.27
2022-12-01T11:55:16.334Z,4.28
2022-12-01T11:57:44.053Z,4.25
2022-12-01T12:00:14.889Z,4.25
2022-12-01T12:02:56.882Z,4.25
2022-12-01T12:05:45.851Z,4.26
2022-12-01T12:08:37.464Z,4.24
2022-12-01T12:11:17.202Z,4.20
2022-12-01T12:14:21.616Z,4.18
2022-12-01T12:17:03.355Z,4.20
2022-12-01T12:20:10.463Z,4.24
2022-12-01T12:22:43.480Z,4.27
2022-12-01T12:25:16.322Z,4.24
2022-12-01T12:28:02.300Z,4.20
2022-12-01T12:30:30.160Z,4.14
2022-12-01T12:33:18.814Z,4.12
2022-12-01T12:36:30.283Z,4.09
2022-12-01T12:39:06.533Z,4.07
2022-12-01T12:41:46.732Z,3.94
2022-12-01T12:44:36.841Z,4.00
2022-12-01T12:47:41.795Z,4.01
2022-12-01T12:50:36.449Z,4.00
2022-12-01T12:53:06.792Z,3.97
2022-12-01T12:55:48.705Z,3.96
2022-12-01T12:58:38.014Z,3.93
2022-12-01T13:01:17.693Z,3.94
2022-12-01T13:03:47.192Z,3.95
2022-12-01T13:06:18.067Z,3.95
2022-12-01T13:08:50.875Z,3.87
2022-12-01T13:11:27.757Z,3.92
2022-12-01T13:14:04.053Z,3.80
2022-12-01T13:16:41.933Z,3.80
2022-12-01T13:19:34.023Z,3.74
2022-12-01T13:22:01.001Z,3.63
2022-12-01T13:24:29.677Z,3.55
2022-12-01T13:27:17.750Z,3.47
2022-12-01T13:29:47.050Z,3.43
2022-12-01T13:32:32.564Z,3.35
2022-12-01T13:34:59.755Z,3.29
2022-12-01T13:37:36.857Z,3.21
2022-12-01T13:40:33.487Z,3.14
2022-12-01T13:43:10.933Z,3.14
2022-12-01T13:45:38.296Z,3.11
2022-12-01T13:48:06.035Z,3.06
2022-12-01T13:50:59.833Z,3.03
2022-12-01T13:53:36.565Z,2.93
2022-12-01T13:56:03.296Z,2.93
2022-12-01T13:58:33.041Z,2.90
2022-12-01T14:01:22.168Z,2.82
2022-12-01T14:04:11.181Z,2.78
2022-12-01T14:06:58.892Z,2.74
2022-12-01T14:09:52.911Z,2.68
2022-12-01T14:12:26.713Z,2.60
2022-12-01T14:15:04.303Z,2.56
2022-12-01T14:17:32.754Z,2.55
2022-12-01T14:20:08.692Z,2.51
2022-12-01T14:22:38.881Z,2.43
2022-12-01T14:25:25.883Z,2.42
2022-12-01T14:27:54.930Z,2.30
2022-12-01T14:30:40.871Z,2.33
2022-12-01T14:33:45.101Z,2.32
2022-12-01T14:36:24.178Z,2.29
2022-12-01T14:39:05.990Z,2.24
2022-12-01T14:41:41.431Z,2.20
2022-12-01T14:44:31.374Z,2.15
2022-12-01T14:47:00.175Z,2.02
2022-12-01T14:49:37.842Z,2.10
2022-12-01T14:52:06.045Z,2.08
2022-12-01T14:54:51.573Z,2.06
2022-12-01T14:57:20.521Z,2.03
2022-12-01T14:59:47.341Z,2.01
2022-12-01T15:02:14.228Z,1.91
2022-12-01T15:05:18.765Z,1.97
2022-12-01T15:07:56.258Z,1.94
2022-12-01T15:10:35.313Z,1.92
2022-12-01T15:13:30.950Z,1.89
2022-12-01T15:16:02.804Z,1.81
2022-12-01T15:18:32.312Z,1.86
2022-12-01T15:21:07.044Z,1.82
2022-12-01T15:23:33.882Z,1.80
2022-12-01T15:26:00.863Z,1.78
2022-12-01T15:28:35.122Z,1.81
2022-12-01T15:31:12.920Z,1.81
2022-12-01T15:33:47.771Z,1.77
2022-12-01T15:36:14.899Z,1.71
2022-12-01T15:38:42.721Z,1.80
2022-12-01T15:41:32.275Z,1.79
2022-12-01T15:44:00.802Z,1.80
2022-12-01T15:46:29.878Z,1.72
2022-12-01T15:49:16.702Z,1.77
2022-12-01T15:51:43.509Z,1.67
2022-12-01T15:54:20.370Z,1.78
2022-12-01T15:56:47.209Z,1.71
2022-12-01T15:59:13.970Z,1.77
2022-12-01T16:01:42.003Z,1.72
2022-12-01T16:04:20.750Z,1.73
2022-12-01T16:07:01.830Z,1.75
2022-12-01T16:09:39.492Z,1.77
2022-12-01T16:12:09.289Z,1.75
2022-12-01T16:14:36.616Z,1.75
2022-12-01T16:17:04.340Z,1.75
2022-12-01T16:19:31.993Z,1.71
2022-12-01T16:22:15.000Z,1.74
2022-12-01T16:24:49.293Z,1.75
2022-12-01T16:27:22.194Z,1.74
2022-12-01T16:29:57.722Z,1.75
2022-12-01T16:32:31.998Z,1.72
2022-12-01T16:34:59.226Z,1.75
2022-12-01T16:37:26.721Z,1.75
2022-12-01T16:39:53.931Z,1.66
2022-12-01T16:42:23.818Z,1.71
2022-12-01T16:44:51.501Z,1.73
2022-12-01T16:47:23.630Z,1.75
2022-12-01T16:49:50.882Z,1.65
2022-12-01T16:55:04.993Z,1.75
2022-12-01T16:57:31.829Z,1.72
2022-12-01T16:59:58.750Z,1.70
2022-12-01T17:02:25.658Z,1.73
2022-12-01T17:04:52.713Z,1.73
2022-12-01T17:07:19.915Z,1.73
2022-12-01T17:09:46.912Z,1.73
2022-12-01T17:12:13.770Z,1.66
2022-12-01T17:14:40.611Z,1.71
2022-12-01T17:17:07.446Z,1.70
2022-12-01T17:19:34.382Z,1.59
2022-12-01T17:22:01.223Z,1.65
2022-12-01T17:24:28.081Z,1.63
2022-12-01T17:26:54.961Z,1.59
2022-12-01T17:29:22.091Z,1.60
2022-12-01T17:31:49.044Z,1.63
2022-12-01T17:34:15.882Z,1.59
2022-12-01T17:36:42.739Z,1.61
2022-12-01T17:39:09.572Z,1.60
2022-12-01T17:41:36.420Z,1.69
2022-12-01T17:44:03.916Z,1.60
2022-12-01T17:46:31.066Z,1.60
2022-12-01T17:48:58.530Z,1.67
2022-12-01T17:51:25.381Z,1.64
2022-12-01T17:53:53.941Z,1.74
2022-12-01T17:56:20.709Z,1.67
2022-12-01T17:58:49.484Z,1.63
2022-12-01T18:01:17.604Z,1.74
2022-12-01T18:03:44.704Z,1.74
2022-12-01T18:06:11.639Z,1.75
2022-12-01T18:08:38.693Z,1.65
2022-12-01T18:11:13.080Z,1.75
2022-12-01T18:13:41.373Z,1.74
2022-12-01T18:16:09.194Z,1.70
2022-12-01T18:18:37.246Z,1.72
2022-12-01T18:21:08.321Z,1.72
2022-12-01T18:23:35.160Z,1.75
2022-12-01T18:26:16.172Z,1.69
2022-12-01T18:28:43.663Z,1.69
2022-12-01T18:31:15.269Z,1.78
2022-12-01T18:33:43.170Z,1.76
2022-12-01T18:36:12.390Z,1.77
2022-12-01T18:38:39.731Z,1.72
2022-12-01T18:41:06.744Z,1.76
2022-12-01T18:43:33.691Z,1.74
2022-12-01T18:46:00.611Z,1.81
2022-12-01T18:48:27.580Z,1.80
2022-12-01T18:50:59.279Z,1.82
2022-12-01T18:53:26.531Z,1.81
2022-12-01T18:55:53.401Z,1.80
2022-12-01T18:58:20.239Z,1.81
2022-12-01T19:00:47.130Z,1.76
2022-12-01T19:03:14.191Z,1.80
2022-12-01T19:05:41.046Z,1.76
2022-12-01T19:08:08.298Z,1.76
2022-12-01T19:10:35.203Z,1.79
2022-12-01T19:13:02.056Z,1.78
2022-12-01T19:15:29.089Z,1.75
2022-12-01T19:17:55.941Z,1.78
2022-12-01T19:20:22.800Z,1.71
2022-12-01T19:22:49.620Z,1.72
2022-12-01T19:25:16.451Z,1.81
2022-12-01T19:27:43.403Z,1.76
2022-12-01T19:30:10.650Z,1.79
2022-12-01T19:32:37.601Z,1.79
2022-12-01T19:35:04.679Z,1.79
2022-12-01T19:37:31.499Z,1.73
2022-12-01T19:39:58.292Z,1.80
2022-12-01T19:42:25.161Z,1.80
2022-12-01T19:44:52.170Z,1.79
2022-12-01T19:47:22.350Z,1.81
2022-12-01T19:49:49.377Z,1.77
2022-12-01T19:52:16.180Z,1.78
2022-12-01T19:54:43.201Z,1.79
2022-12-01T19:57:09.992Z,1.74
2022-12-01T19:59:36.820Z,1.75
2022-12-01T20:02:03.692Z,1.76
2022-12-01T20:04:30.729Z,1.76
2022-12-01T20:06:57.533Z,1.75
2022-12-01T20:09:24.410Z,1.78
2022-12-01T20:11:51.252Z,1.67
2022-12-01T20:14:18.111Z,1.75
2022-12-01T20:16:45.000Z,1.70
2022-12-01T20:19:11.959Z,1.78
2022-12-01T20:21:42.431Z,1.78
2022-12-01T20:24:12.468Z,1.76
2022-12-01T20:26:41.643Z,1.79
2022-12-01T20:29:10.713Z,1.77
2022-12-01T20:31:37.653Z,1.79
2022-12-01T20:34:07.867Z,1.77
2022-12-01T20:36:34.721Z,1.79
2022-12-01T20:39:01.527Z,1.77
2022-12-01T20:41:28.421Z,1.78
2022-12-01T20:43:55.210Z,1.75
2022-12-01T20:46:22.067Z,1.76
2022-12-01T20:48:49.011Z,1.78
2022-12-01T20:51:15.921Z,1.78
2022-12-01T20:53:59.561Z,1.73
2022-12-01T20:56:30.051Z,1.76
2022-12-01T20:58:56.879Z,1.74
2022-12-01T21:01:23.928Z,1.70
2022-12-01T21:03:53.680Z,1.76
2022-12-01T21:06:20.836Z,1.67
2022-12-01T21:08:49.541Z,1.67
2022-12-01T21:11:40.901Z,1.76
2022-12-01T21:14:11.451Z,1.76
2022-12-01T21:16:38.345Z,1.76
2022-12-01T21:19:24.549Z,1.74
2022-12-01T21:21:51.353Z,1.75
2022-12-01T21:24:20.045Z,1.75
2022-12-01T21:27:14.030Z,1.77
2022-12-01T21:29:42.440Z,1.76
2022-12-01T21:32:16.891Z,1.76
2022-12-01T21:34:43.831Z,1.75
2022-12-01T21:37:24.629Z,1.76
2022-12-01T21:39:52.411Z,1.72
2022-12-01T21:42:21.657Z,1.76
2022-12-01T21:44:48.838Z,1.77
2022-12-01T21:47:20.817Z,1.75
2022-12-01T21:49:49.783Z,1.73
2022-12-01T21:52:19.240Z,1.75
2022-12-01T21:54:46.171Z,1.73
2022-12-01T21:57:42.751Z,1.73
2022-12-01T22:00:30.160Z,1.74
2022-12-01T22:03:04.231Z,1.73
2022-12-01T22:05:38.216Z,1.72
2022-12-01T22:08:12.681Z,1.73
2022-12-01T22:11:19.009Z,1.64
2022-12-01T22:13:50.203Z,1.67
2022-12-01T22:16:25.697Z,1.70
2022-12-01T22:18:53.782Z,1.69
2022-12-01T22:21:28.453Z,1.69
2022-12-01T22:24:32.571Z,1.66
2022-12-01T22:27:05.432Z,1.67
2022-12-01T22:29:38.161Z,1.65
2022-12-01T22:32:17.145Z,1.67
2022-12-01T22:34:51.238Z,1.66
2022-12-01T22:37:24.446Z,1.65
2022-12-01T22:39:55.641Z,1.66
2022-12-01T22:42:33.120Z,1.65
2022-12-01T22:45:23.784Z,1.64
2022-12-01T22:47:51.000Z,1.58
2022-12-01T22:50:30.141Z,1.53
2022-12-01T22:53:02.421Z,1.53
2022-12-01T22:55:29.300Z,1.63
2022-12-01T22:57:56.141Z,1.63
2022-12-01T23:00:23.561Z,1.60
2022-12-01T23:02:51.228Z,1.62
2022-12-01T23:05:26.300Z,1.59
2022-12-01T23:07:53.521Z,1.56
2022-12-01T23:10:20.820Z,1.60
2022-12-01T23:12:49.121Z,1.57
2022-12-01T23:15:21.741Z,1.58
2022-12-01T23:17:49.220Z,1.52
2022-12-01T23:20:34.819Z,1.60
2022-12-01T23:23:07.220Z,1.53
2022-12-01T23:25:34.936Z,1.60
2022-12-01T23:28:06.161Z,1.61
2022-12-01T23:30:33.179Z,1.52
2022-12-01T23:33:22.672Z,1.60
2022-12-01T23:36:12.013Z,1.60
2022-12-01T23:38:44.061Z,1.59
2022-12-01T23:41:33.562Z,1.59
2022-12-01T23:44:22.541Z,1.59
2022-12-01T23:46:51.235Z,1.57
2022-12-01T23:49:20.922Z,1.58
2022-12-01T23:51:50.230Z,1.58
2022-12-01T23:54:24.403Z,1.54
2022-12-01T23:57:21.960Z,1.57
2022-12-01T23:59:49.661Z,1.49
